Nashville, TN (37246)

10:55 PM CST on February 06, 2016 (GMT -0600)
12 South | | Change Station
CLOSE
Current Station
Personal Weather Station
Location: Nashville, TN
Elevation: 538 ft
Nearby Weather Stations

Elev 538 ft 36.12 °N, 86.79 °W | Updated 17 seconds ago

Clear
Clear
30.6 °F
Feels Like 31 °F
N
0.0
Wind Variable Wind from North
Gusts 0.0 mph

Today
High -- | Low -- °F
--% Chance of Precip.
Yesterday
High -- | Low -- °F
Precip. -- in
Pressure 30.29 in
Visibility 10.0 miles
Clouds Clear
Windchill 31 °F
Dew Point 26 °F
Humidity 82%
Rainfall 0.00 in
Snow Depth Not available.
6:44 AM 5:18 PM
Waning Crescent, 3% visible
METAR KBNA 070453Z 00000KT 10SM CLR 01/M04 A3028 RMK AO2 SLP255 T00111044
Pressure 30.29 in
Visibility 10.0 miles
Clouds Clear
Windchill 31 °F
Dew Point 26 °F
Humidity 82%
Rainfall 0.00 in
Snow Depth Not available.
6:44 AM 5:18 PM
Waning Crescent, 3% visible
METAR KBNA 070453Z 00000KT 10SM CLR 01/M04 A3028 RMK AO2 SLP255 T00111044

10-Day Weather Forecast

Almanac

Astronomy

Feb. 06, 2016 Rise Set
Actual Time
Civil Twilight
Nautical Twilight
Astronomical Twilight
Moon
Length of Visible Light
Length of Day
Tomorrow will be .
, % of the Moon is Illuminated

Today's Extremes

State Highs State Lows

Community

WunderPhotos

Upload Photos

1,891,157 photos uploaded!

WunderBlog® & News

Nearby

Air Quality

  Air Quality AQ Index Pollutant
Not available.

Snow Depth

Station Depth Elevation

Earthquake Activity

City Distance Mag. Time & Date
Minimum magnitude displayed is 2.5.

Coastal Water Temperatures

Place Temperature

Stations

Nearby Weather Stations

Station Location Temp. Windchill Dew Point Humidity Wind Precip. Elev Updated Type
                   

Watches & Warnings

There are currently no watches in effect.